createdAt,value
2022-11-20T00:00:55.901Z,25.17
2022-11-20T00:03:24.664Z,26.30
2022-11-20T00:05:51.029Z,28.00
2022-11-20T00:08:17.311Z,24.90
2022-11-20T00:10:43.679Z,24.87
2022-11-20T00:13:09.992Z,26.50
2022-11-20T00:15:36.280Z,29.10
2022-11-20T00:18:02.629Z,23.07
2022-11-20T00:20:28.925Z,25.77
2022-11-20T00:22:55.285Z,25.27
2022-11-20T00:25:21.631Z,31.20
2022-11-20T00:27:47.953Z,29.10
2022-11-20T00:30:15.202Z,28.23
2022-11-20T00:32:41.749Z,25.83
2022-11-20T00:35:08.257Z,23.70
2022-11-20T00:37:34.665Z,27.77
2022-11-20T00:40:00.987Z,24.73
2022-11-20T00:42:27.374Z,26.27
2022-11-20T00:44:53.768Z,29.67
2022-11-20T00:47:20.090Z,24.57
2022-11-20T00:49:46.453Z,36.40
2022-11-20T00:52:12.755Z,27.67
2022-11-20T00:54:39.110Z,30.33
2022-11-20T00:57:05.553Z,29.20
2022-11-20T00:59:31.829Z,28.20
2022-11-20T01:01:58.177Z,28.37
2022-11-20T01:04:24.534Z,25.43
2022-11-20T01:06:50.902Z,28.40
2022-11-20T01:09:17.374Z,27.40
2022-11-20T01:11:45.343Z,28.83
2022-11-20T01:14:17.408Z,28.03
2022-11-20T01:16:49.884Z,29.17
2022-11-20T01:19:22.170Z,28.07
2022-11-20T01:21:51.411Z,26.90
2022-11-20T01:24:19.508Z,27.57
2022-11-20T01:26:49.239Z,31.80
2022-11-20T01:29:19.654Z,27.07
2022-11-20T01:31:46.239Z,26.90
2022-11-20T01:34:19.345Z,34.97
2022-11-20T01:36:46.783Z,29.57
2022-11-20T01:39:19.302Z,27.33
2022-11-20T01:42:09.938Z,30.13
2022-11-20T01:44:57.581Z,29.43
2022-11-20T01:47:40.568Z,27.27
2022-11-20T01:50:15.869Z,33.90
2022-11-20T01:52:47.253Z,33.07
2022-11-20T01:55:22.885Z,29.03
2022-11-20T01:57:49.836Z,27.83
2022-11-20T02:00:19.814Z,27.73
2022-11-20T02:02:54.313Z,24.77
2022-11-20T02:05:28.265Z,27.07
2022-11-20T02:07:57.202Z,29.23
2022-11-20T02:10:23.686Z,28.70
2022-11-20T02:13:08.600Z,29.50
2022-11-20T02:15:35.455Z,29.20
2022-11-20T02:18:02.306Z,30.70
2022-11-20T02:20:28.671Z,30.20
2022-11-20T02:23:00.503Z,30.73
2022-11-20T02:25:28.662Z,28.63
2022-11-20T02:27:55.188Z,32.43
2022-11-20T02:30:21.494Z,30.33
2022-11-20T02:32:47.878Z,31.83
2022-11-20T02:35:20.195Z,27.23
2022-11-20T02:37:50.732Z,30.10
2022-11-20T02:40:17.382Z,30.93
2022-11-20T02:42:43.737Z,28.50
2022-11-20T02:45:10.413Z,31.50
2022-11-20T02:47:36.789Z,32.27
2022-11-20T02:50:04.759Z,32.73
2022-11-20T02:52:31.118Z,34.30
2022-11-20T02:54:57.601Z,33.63
2022-11-20T02:57:24.044Z,36.03
2022-11-20T02:59:50.419Z,34.57
2022-11-20T03:02:16.798Z,30.60
2022-11-20T03:04:43.156Z,35.40
2022-11-20T03:07:10.693Z,33.17
2022-11-20T03:09:37.155Z,30.47
2022-11-20T03:12:03.817Z,35.73
2022-11-20T03:14:30.197Z,33.60
2022-11-20T03:16:56.928Z,31.63
2022-11-20T03:19:23.772Z,33.33
2022-11-20T03:21:50.292Z,31.60
2022-11-20T03:24:16.687Z,33.47
2022-11-20T03:26:43.077Z,33.00
2022-11-20T03:29:09.380Z,32.27
2022-11-20T03:31:38.695Z,29.73
2022-11-20T03:34:05.368Z,32.63
2022-11-20T03:36:32.085Z,33.27
2022-11-20T03:38:58.794Z,35.73
2022-11-20T03:41:28.138Z,33.93
2022-11-20T03:43:56.943Z,30.57
2022-11-20T03:46:24.343Z,35.37
2022-11-20T03:48:52.170Z,30.90
2022-11-20T03:51:24.330Z,30.63
2022-11-20T03:53:52.576Z,34.17
2022-11-20T03:56:21.127Z,33.77
2022-11-20T03:58:47.441Z,27.83
2022-11-20T04:01:22.796Z,32.70
2022-11-20T04:03:49.604Z,32.73
2022-11-20T04:06:17.839Z,30.23
2022-11-20T04:08:47.522Z,32.37
2022-11-20T04:11:17.170Z,32.63
2022-11-20T04:13:48.019Z,30.90
2022-11-20T04:16:14.955Z,33.73
2022-11-20T04:18:41.303Z,33.33
2022-11-20T04:21:08.307Z,32.07
2022-11-20T04:23:34.639Z,30.53
2022-11-20T04:26:08.793Z,32.60
2022-11-20T04:28:35.886Z,33.93
2022-11-20T04:31:07.384Z,31.43
2022-11-20T04:33:34.620Z,32.23
2022-11-20T04:36:13.751Z,33.50
2022-11-20T04:38:40.778Z,34.43
2022-11-20T04:41:13.280Z,30.27
2022-11-20T04:43:39.626Z,29.90
2022-11-20T04:46:05.957Z,32.83
2022-11-20T04:48:32.269Z,32.83
2022-11-20T04:50:58.802Z,30.57
2022-11-20T04:53:25.137Z,33.03
2022-11-20T04:55:51.434Z,33.63
2022-11-20T04:58:17.973Z,35.67
2022-11-20T05:00:44.366Z,30.60
2022-11-20T05:03:10.677Z,34.17
2022-11-20T05:05:37.049Z,31.33
2022-11-20T05:08:03.498Z,32.33
2022-11-20T05:10:29.889Z,33.67
2022-11-20T05:12:58.049Z,33.00
2022-11-20T05:15:24.555Z,35.83
2022-11-20T05:17:52.461Z,31.57
2022-11-20T05:20:19.603Z,33.03
2022-11-20T05:22:46.353Z,31.47
2022-11-20T05:25:13.002Z,37.27
2022-11-20T05:27:39.794Z,34.80
2022-11-20T05:30:06.815Z,30.90
2022-11-20T05:32:33.126Z,37.37
2022-11-20T05:34:59.503Z,31.97
2022-11-20T05:37:25.905Z,34.03
2022-11-20T05:39:52.197Z,32.40
2022-11-20T05:42:33.723Z,32.87
2022-11-20T05:45:04.743Z,33.40
2022-11-20T05:47:35.894Z,30.80
2022-11-20T05:50:02.298Z,33.27
2022-11-20T05:52:31.617Z,34.73
2022-11-20T05:54:58.111Z,37.00
2022-11-20T05:57:24.725Z,39.10
2022-11-20T05:59:51.225Z,37.33
2022-11-20T06:02:17.633Z,34.97
2022-11-20T06:04:44.013Z,33.30
2022-11-20T06:07:10.415Z,32.57
2022-11-20T06:09:36.835Z,32.90
2022-11-20T06:12:03.336Z,36.37
2022-11-20T06:14:29.697Z,32.10
2022-11-20T06:16:56.207Z,36.57
2022-11-20T06:19:23.094Z,32.60
2022-11-20T06:21:52.640Z,33.33
2022-11-20T06:24:19.006Z,36.30
2022-11-20T06:26:45.665Z,34.53
2022-11-20T06:29:12.104Z,38.43
2022-11-20T06:31:38.927Z,35.83
2022-11-20T06:34:07.074Z,31.23
2022-11-20T06:36:34.071Z,33.07
2022-11-20T06:39:00.953Z,38.30
2022-11-20T06:41:28.802Z,36.87
2022-11-20T06:43:55.431Z,38.33
2022-11-20T06:46:22.546Z,38.43
2022-11-20T06:48:50.200Z,41.47
2022-11-20T06:51:16.985Z,34.03
2022-11-20T06:53:43.365Z,36.60
2022-11-20T06:56:09.761Z,44.77
2022-11-20T06:58:37.359Z,45.87
2022-11-20T07:01:10.198Z,43.53
2022-11-20T07:03:37.181Z,39.83
2022-11-20T07:06:04.567Z,42.80
2022-11-20T07:08:31.415Z,41.00
2022-11-20T07:10:59.722Z,39.67
2022-11-20T07:13:26.774Z,39.90
2022-11-20T07:15:53.149Z,41.40
2022-11-20T07:18:19.464Z,41.90
2022-11-20T07:20:45.763Z,39.60
2022-11-20T07:23:12.060Z,38.23
2022-11-20T07:25:38.328Z,37.30
2022-11-20T07:28:04.966Z,40.17
2022-11-20T07:30:31.414Z,37.67
2022-11-20T07:32:58.071Z,42.27
2022-11-20T07:35:25.559Z,42.63
2022-11-20T07:37:51.959Z,39.57
2022-11-20T07:40:19.138Z,35.77
2022-11-20T07:42:53.380Z,38.00
2022-11-20T07:45:21.282Z,40.37
2022-11-20T07:47:47.755Z,40.00
2022-11-20T07:50:14.716Z,34.60
2022-11-20T07:52:41.434Z,37.83
2022-11-20T07:55:08.824Z,37.33
2022-11-20T07:57:35.207Z,36.53
2022-11-20T08:00:01.892Z,35.77
2022-11-20T08:02:28.262Z,34.17
2022-11-20T08:04:54.600Z,34.33
2022-11-20T08:07:20.953Z,34.03
2022-11-20T08:09:47.491Z,39.63
2022-11-20T08:12:39.260Z,35.90
2022-11-20T08:15:12.612Z,38.90
2022-11-20T08:17:39.522Z,33.70
2022-11-20T08:20:06.115Z,33.67
2022-11-20T08:22:32.777Z,38.13
2022-11-20T08:24:59.089Z,35.63
2022-11-20T08:27:25.413Z,34.63
2022-11-20T08:29:51.727Z,36.30
2022-11-20T08:32:18.117Z,37.57
2022-11-20T08:34:44.474Z,39.83
2022-11-20T08:37:10.847Z,35.33
2022-11-20T08:39:37.173Z,33.73
2022-11-20T08:42:07.273Z,30.13
2022-11-20T08:44:33.572Z,32.20
2022-11-20T08:47:01.366Z,33.27
2022-11-20T08:49:27.838Z,31.70
2022-11-20T08:51:56.019Z,34.60
2022-11-20T08:54:23.492Z,32.67
2022-11-20T08:56:49.838Z,33.10
2022-11-20T08:59:27.399Z,33.30
2022-11-20T09:02:02.677Z,31.73
2022-11-20T09:04:29.571Z,31.77
2022-11-20T09:06:56.003Z,32.10
2022-11-20T09:09:22.774Z,35.80
2022-11-20T09:11:50.776Z,32.53
2022-11-20T09:14:17.074Z,31.77
2022-11-20T09:16:45.345Z,34.33
2022-11-20T09:21:59.843Z,32.30
2022-11-20T09:24:27.389Z,29.47
2022-11-20T09:26:53.725Z,31.10
2022-11-20T09:29:20.330Z,34.03
2022-11-20T09:31:46.891Z,32.83
2022-11-20T09:34:13.213Z,32.33
2022-11-20T09:36:39.527Z,33.10
2022-11-20T09:39:05.880Z,31.03
2022-11-20T09:42:10.930Z,28.03
2022-11-20T09:44:53.897Z,32.80
2022-11-20T09:47:47.760Z,31.17
2022-11-20T09:50:37.405Z,32.63
2022-11-20T09:53:23.316Z,31.17
2022-11-20T09:55:49.847Z,29.27
2022-11-20T09:58:41.336Z,30.53
2022-11-20T10:01:15.618Z,32.00
2022-11-20T10:03:51.518Z,32.40
2022-11-20T10:06:22.630Z,31.07
2022-11-20T10:09:00.571Z,29.00
2022-11-20T10:12:01.055Z,29.73
2022-11-20T10:14:44.141Z,29.17
2022-11-20T10:17:34.824Z,29.70
2022-11-20T10:20:22.933Z,29.27
2022-11-20T10:23:26.090Z,31.20
2022-11-20T10:26:03.208Z,30.57
2022-11-20T10:28:55.411Z,28.13
2022-11-20T10:31:35.888Z,27.60
2022-11-20T10:34:12.658Z,28.23
2022-11-20T10:36:50.548Z,28.30
2022-11-20T10:39:25.990Z,33.80
2022-11-20T10:41:54.568Z,31.20
2022-11-20T10:44:47.392Z,30.97
2022-11-20T10:47:16.496Z,28.37
2022-11-20T10:49:47.291Z,28.67
2022-11-20T10:52:29.713Z,27.33
2022-11-20T10:55:04.763Z,27.97
2022-11-20T10:57:52.587Z,32.77
2022-11-20T11:00:19.098Z,28.43
2022-11-20T11:02:49.493Z,26.57
2022-11-20T11:05:26.922Z,27.83
2022-11-20T11:07:56.057Z,29.93
2022-11-20T11:10:28.658Z,32.20
2022-11-20T11:12:54.994Z,28.70
2022-11-20T11:15:29.027Z,31.87
2022-11-20T11:17:55.621Z,30.43
2022-11-20T11:20:26.757Z,29.57
2022-11-20T11:22:58.335Z,34.80
2022-11-20T11:25:36.251Z,26.30
2022-11-20T11:28:20.559Z,33.33
2022-11-20T11:30:48.513Z,27.93
2022-11-20T11:33:29.467Z,25.37
2022-11-20T11:35:59.347Z,25.30
2022-11-20T11:38:37.580Z,27.50
2022-11-20T11:41:06.049Z,26.53
2022-11-20T11:43:53.384Z,29.30
2022-11-20T11:46:25.547Z,27.00
2022-11-20T11:49:00.010Z,27.63
2022-11-20T11:51:32.666Z,26.13
2022-11-20T11:54:01.879Z,24.87
2022-11-20T11:56:29.596Z,28.40
2022-11-20T11:59:01.449Z,23.80
2022-11-20T12:01:43.085Z,21.37
2022-11-20T12:04:15.446Z,22.57
2022-11-20T12:06:46.476Z,20.00
2022-11-20T12:09:13.112Z,22.50
2022-11-20T12:12:09.552Z,23.27
2022-11-20T12:14:41.739Z,23.37
2022-11-20T12:17:11.737Z,23.23
2022-11-20T12:19:38.231Z,24.80
2022-11-20T12:22:36.442Z,26.43
2022-11-20T12:25:25.278Z,23.90
2022-11-20T12:28:34.465Z,28.27
2022-11-20T12:31:37.573Z,27.03
2022-11-20T12:34:18.426Z,25.80
2022-11-20T12:36:57.636Z,23.43
2022-11-20T12:39:41.080Z,22.97
2022-11-20T12:42:52.644Z,26.00
2022-11-20T12:45:32.382Z,25.60
2022-11-20T12:48:34.542Z,27.73
2022-11-20T12:51:15.450Z,25.60
2022-11-20T12:54:14.734Z,27.60
2022-11-20T12:57:06.650Z,27.53
2022-11-20T13:00:02.796Z,29.57
2022-11-20T13:02:53.795Z,30.17
2022-11-20T13:05:38.410Z,29.93
2022-11-20T13:08:16.274Z,29.60
2022-11-20T13:10:54.817Z,29.30
2022-11-20T13:13:21.083Z,27.93
2022-11-20T13:15:56.838Z,28.47
2022-11-20T13:18:23.554Z,26.67
2022-11-20T13:20:50.543Z,28.60
2022-11-20T13:23:27.326Z,27.40
2022-11-20T13:26:15.842Z,26.27
2022-11-20T13:28:42.824Z,27.30
2022-11-20T13:31:31.342Z,24.50
2022-11-20T13:33:59.687Z,27.07
2022-11-20T13:36:28.727Z,24.63
2022-11-20T13:38:56.851Z,23.77
2022-11-20T13:41:38.870Z,24.40
2022-11-20T13:44:25.602Z,21.90
2022-11-20T13:46:52.322Z,23.00
2022-11-20T13:49:25.989Z,21.27
2022-11-20T13:52:04.111Z,24.77
2022-11-20T13:54:52.669Z,24.13
2022-11-20T13:57:37.498Z,24.63
2022-11-20T14:00:13.209Z,25.80
2022-11-20T14:02:40.148Z,21.47
2022-11-20T14:05:07.129Z,24.63
2022-11-20T14:07:38.214Z,21.47
2022-11-20T14:10:05.173Z,25.37
2022-11-20T14:12:34.896Z,23.70
2022-11-20T14:15:02.314Z,25.20
2022-11-20T14:17:34.159Z,25.70
2022-11-20T14:20:13.421Z,25.17
2022-11-20T14:22:39.705Z,23.10
2022-11-20T14:25:15.121Z,21.93
2022-11-20T14:27:44.305Z,27.80
2022-11-20T14:30:16.219Z,22.07
2022-11-20T14:32:44.044Z,19.73
2022-11-20T14:35:19.913Z,25.07
2022-11-20T14:37:46.868Z,25.47
2022-11-20T14:40:28.169Z,21.57
2022-11-20T14:42:54.588Z,24.37
2022-11-20T14:45:22.253Z,22.43
2022-11-20T14:47:49.763Z,22.60
2022-11-20T14:50:25.431Z,22.67
2022-11-20T14:53:00.167Z,22.17
2022-11-20T14:55:29.576Z,24.60
2022-11-20T14:58:26.008Z,21.93
2022-11-20T15:01:01.510Z,26.17
2022-11-20T15:03:36.893Z,25.20
2022-11-20T15:06:04.053Z,28.47
2022-11-20T15:08:31.092Z,23.57
2022-11-20T15:10:58.506Z,21.07
2022-11-20T15:13:32.518Z,24.17
2022-11-20T15:16:01.279Z,24.43
2022-11-20T15:18:38.686Z,22.67
2022-11-20T15:21:12.435Z,27.67
2022-11-20T15:23:39.251Z,21.60
2022-11-20T15:26:07.281Z,21.40
2022-11-20T15:28:38.068Z,22.90
2022-11-20T15:31:05.095Z,24.47
2022-11-20T15:33:34.428Z,23.90
2022-11-20T15:36:01.278Z,29.83
2022-11-20T15:38:27.606Z,26.50
2022-11-20T15:40:53.928Z,22.50
2022-11-20T15:43:20.322Z,21.60
2022-11-20T15:45:46.600Z,24.90
2022-11-20T15:48:20.275Z,20.23
2022-11-20T15:50:58.744Z,23.27
2022-11-20T15:53:25.096Z,22.37
2022-11-20T15:55:51.478Z,19.57
2022-11-20T15:58:17.931Z,20.60
2022-11-20T16:00:45.333Z,23.10
2022-11-20T16:03:12.870Z,23.67
2022-11-20T16:05:39.812Z,24.63
2022-11-20T16:08:11.250Z,24.13
2022-11-20T16:10:38.229Z,24.03
2022-11-20T16:13:23.240Z,26.30
2022-11-20T16:15:57.976Z,23.97
2022-11-20T16:18:24.400Z,23.17
2022-11-20T16:20:53.676Z,25.67
2022-11-20T16:23:21.173Z,30.47
2022-11-20T16:25:48.241Z,23.37
2022-11-20T16:28:18.882Z,23.17
2022-11-20T16:30:45.857Z,21.37
2022-11-20T16:33:15.017Z,22.37
2022-11-20T16:35:41.809Z,24.00
2022-11-20T16:38:10.548Z,23.73
2022-11-20T16:40:38.449Z,23.73
2022-11-20T16:43:11.113Z,26.87
2022-11-20T16:45:42.002Z,28.03
2022-11-20T16:48:12.633Z,27.50
2022-11-20T16:50:45.738Z,29.63
2022-11-20T16:53:12.054Z,26.43
2022-11-20T16:55:38.373Z,26.17
2022-11-20T16:58:04.664Z,29.27
2022-11-20T17:00:30.972Z,28.57
2022-11-20T17:02:57.292Z,28.20
2022-11-20T17:05:23.609Z,28.37
2022-11-20T17:07:49.968Z,28.23
2022-11-20T17:10:16.376Z,29.13
2022-11-20T17:12:44.653Z,25.63
2022-11-20T17:15:11.180Z,29.40
2022-11-20T17:17:37.822Z,27.53
2022-11-20T17:20:04.622Z,29.60
2022-11-20T17:22:32.083Z,24.23
2022-11-20T17:24:58.482Z,25.47
2022-11-20T17:27:24.826Z,25.80
2022-11-20T17:29:51.198Z,27.13
2022-11-20T17:32:17.511Z,30.77
2022-11-20T17:34:43.837Z,29.53
2022-11-20T17:37:10.166Z,28.10
2022-11-20T17:39:36.461Z,29.17
2022-11-20T17:42:21.450Z,28.47
2022-11-20T17:44:47.929Z,31.23
2022-11-20T17:47:14.300Z,33.80
2022-11-20T17:49:40.629Z,29.90
2022-11-20T17:52:09.695Z,32.03
2022-11-20T17:54:36.048Z,30.57
2022-11-20T17:57:20.960Z,28.73
2022-11-20T17:59:47.314Z,33.77
2022-11-20T18:02:13.707Z,34.77
2022-11-20T18:04:40.050Z,30.87
2022-11-20T18:07:06.411Z,27.30
2022-11-20T18:09:32.835Z,28.27
2022-11-20T18:11:59.184Z,26.33
2022-11-20T18:14:36.270Z,28.13
2022-11-20T18:17:06.247Z,30.57
2022-11-20T18:19:40.431Z,31.63
2022-11-20T18:22:12.181Z,35.23
2022-11-20T18:24:39.418Z,36.57
2022-11-20T18:27:07.720Z,37.43
2022-11-20T18:29:34.154Z,37.50
2022-11-20T18:32:01.221Z,30.47
2022-11-20T18:34:27.753Z,29.37
2022-11-20T18:36:54.162Z,31.27
2022-11-20T18:39:20.477Z,31.23
2022-11-20T18:42:05.298Z,29.13
2022-11-20T18:44:51.246Z,20.37
2022-11-20T18:47:19.397Z,26.77
2022-11-20T18:49:51.121Z,18.93
2022-11-20T18:52:23.363Z,21.33
2022-11-20T18:54:50.539Z,22.17
2022-11-20T18:57:19.128Z,15.97
2022-11-20T18:59:47.665Z,17.80
2022-11-20T19:02:18.360Z,16.27
2022-11-20T19:04:44.784Z,9.47
2022-11-20T19:07:12.179Z,7.77
2022-11-20T19:09:39.985Z,5.80
2022-11-20T19:12:10.601Z,5.40
2022-11-20T19:14:37.282Z,1.93
2022-11-20T19:17:06.621Z,2.33
2022-11-20T19:19:34.172Z,3.83
2022-11-20T19:22:00.555Z,3.60
2022-11-20T19:24:29.853Z,2.20
2022-11-20T19:26:56.360Z,4.83
2022-11-20T19:29:23.989Z,2.80
2022-11-20T19:31:50.464Z,1.60
2022-11-20T19:34:16.802Z,1.57
2022-11-20T19:36:45.049Z,1.83
2022-11-20T19:39:12.212Z,1.67
2022-11-20T19:41:40.205Z,1.47
2022-11-20T19:44:12.414Z,0.90
2022-11-20T19:46:39.350Z,0.93
2022-11-20T19:49:09.963Z,1.10
2022-11-20T19:51:37.540Z,2.70
2022-11-20T19:54:04.701Z,1.17
2022-11-20T19:56:32.778Z,1.60
2022-11-20T19:58:59.282Z,1.03
2022-11-20T20:01:28.793Z,1.93
2022-11-20T20:03:56.524Z,1.27
2022-11-20T20:06:25.488Z,1.70
2022-11-20T20:09:00.240Z,1.23
2022-11-20T20:11:29.446Z,2.20
2022-11-20T20:13:56.333Z,1.20
2022-11-20T20:16:24.709Z,1.57
2022-11-20T20:18:54.941Z,2.13
2022-11-20T20:21:21.274Z,1.57
2022-11-20T20:23:54.301Z,2.30
2022-11-20T20:26:22.175Z,2.27
2022-11-20T20:28:48.796Z,2.13
2022-11-20T20:31:18.600Z,1.17
2022-11-20T20:33:45.701Z,5.97
2022-11-20T20:36:14.210Z,2.43
2022-11-20T20:38:40.718Z,1.07
2022-11-20T20:41:07.062Z,4.37
2022-11-20T20:43:53.462Z,2.27
2022-11-20T20:46:20.385Z,1.50
2022-11-20T20:48:51.497Z,1.67
2022-11-20T20:51:20.593Z,3.53
2022-11-20T20:53:46.902Z,3.80
2022-11-20T20:56:13.220Z,2.90
2022-11-20T20:58:40.460Z,2.97
2022-11-20T21:01:15.509Z,4.00
2022-11-20T21:03:42.418Z,5.20
2022-11-20T21:06:10.124Z,4.93
2022-11-20T21:08:40.132Z,6.53
2022-11-20T21:11:09.555Z,3.03
2022-11-20T21:13:37.431Z,2.30
2022-11-20T21:16:04.717Z,2.80
2022-11-20T21:18:31.610Z,3.30
2022-11-20T21:21:17.329Z,3.33
2022-11-20T21:23:47.657Z,2.70
2022-11-20T21:26:15.787Z,3.30
2022-11-20T21:28:42.493Z,2.87
2022-11-20T21:31:22.014Z,3.03
2022-11-20T21:33:50.052Z,2.17
2022-11-20T21:36:19.411Z,2.40
2022-11-20T21:38:46.455Z,3.00
2022-11-20T21:41:14.801Z,2.83
2022-11-20T21:43:42.664Z,2.53
2022-11-20T21:46:11.221Z,3.00
2022-11-20T21:48:39.743Z,5.87
2022-11-20T21:51:17.506Z,4.03
2022-11-20T21:53:45.204Z,4.60
2022-11-20T21:56:16.451Z,5.17
2022-11-20T21:58:47.093Z,3.93
2022-11-20T22:01:17.168Z,5.27
2022-11-20T22:03:48.126Z,4.90
2022-11-20T22:06:14.433Z,5.27
2022-11-20T22:08:40.935Z,6.33
2022-11-20T22:11:09.937Z,6.13
2022-11-20T22:13:55.177Z,3.60
2022-11-20T22:16:22.858Z,10.43
2022-11-20T22:18:51.584Z,5.57
2022-11-20T22:21:20.579Z,3.77
2022-11-20T22:23:47.508Z,5.53
2022-11-20T22:26:16.696Z,5.07
2022-11-20T22:28:43.402Z,8.83
2022-11-20T22:31:11.204Z,4.27
2022-11-20T22:33:38.745Z,1.67
2022-11-20T22:36:06.809Z,8.00
2022-11-20T22:38:39.138Z,4.27
2022-11-20T22:41:14.205Z,3.97
2022-11-20T22:43:42.062Z,6.17
2022-11-20T22:46:10.889Z,6.73
2022-11-20T22:48:39.756Z,6.17
2022-11-20T22:51:09.458Z,5.33
2022-11-20T22:53:36.083Z,9.43
2022-11-20T22:56:03.600Z,6.17
2022-11-20T22:58:31.164Z,6.07
2022-11-20T23:01:31.370Z,5.80
2022-11-20T23:03:59.898Z,7.27
2022-11-20T23:06:26.998Z,10.80
2022-11-20T23:08:53.449Z,3.40
2022-11-20T23:11:25.556Z,5.23
2022-11-20T23:13:55.947Z,4.30
2022-11-20T23:16:22.313Z,3.10
2022-11-20T23:18:53.135Z,3.97
2022-11-20T23:21:19.425Z,3.53
2022-11-20T23:23:50.848Z,5.23
2022-11-20T23:26:20.779Z,5.53
2022-11-20T23:28:47.315Z,2.90
2022-11-20T23:31:15.262Z,3.10
2022-11-20T23:33:44.035Z,1.87
2022-11-20T23:36:11.570Z,3.97
2022-11-20T23:38:38.155Z,4.07
2022-11-20T23:41:04.638Z,2.57
2022-11-20T23:43:31.550Z,1.93
2022-11-20T23:46:00.016Z,3.73
2022-11-20T23:48:29.228Z,1.67
2022-11-20T23:50:57.730Z,3.47
2022-11-20T23:53:25.148Z,2.73
2022-11-20T23:55:56.616Z,1.77
2022-11-20T23:58:24.321Z,4.50
